Time;durP1;ratioP1;P1;durP2;ratioP2;P2;SDS_P1;SDS_P2;PMS_P1;PMS_P2;Temp;Humidity;BMP_temperature;BMP_pressure;BME280_temperature;BME280_humidity;BME280_pressure;Samples;Min_cycle;Max_cycle;Signal;HPM_P1;HPM_P2
2021/03/23 00:00:23;;;;;;;17.92;10.60;;;52.00;2227.20;;;;;;5032576;28;20025;-70
2021/03/23 00:02:57;;;;;;;16.30;10.95;;;52.00;2227.20;;;;;;5033848;28;20057;-70
2021/03/23 00:05:23;;;;;;;16.83;9.70;;;52.00;2227.20;;;;;;5033697;28;20482;-71
2021/03/23 00:07:49;;;;;;;17.45;10.23;;;52.00;2227.20;;;;;;5018824;28;20050;-70
2021/03/23 00:10:19;;;;;;;17.73;9.52;;;51.90;2227.20;;;;;;5013062;28;20453;-73
2021/03/23 00:12:45;;;;;;;16.55;9.57;;;51.90;2227.20;;;;;;5017104;28;20036;-68
2021/03/23 00:15:11;;;;;;;17.35;9.52;;;51.90;2227.20;;;;;;5028033;28;20026;-71
2021/03/23 00:17:37;;;;;;;16.10;9.15;;;51.90;2227.20;;;;;;5028445;28;20108;-71
2021/03/23 00:20:06;;;;;;;15.73;8.98;;;51.90;2227.20;;;;;;5028765;28;20049;-70
2021/03/23 00:22:33;;;;;;;13.82;8.10;;;51.90;2227.20;;;;;;5028963;28;20052;-70
2021/03/23 00:24:59;;;;;;;12.85;8.05;;;51.90;2227.20;;;;;;5028765;28;20025;-74
2021/03/23 00:27:25;;;;;;;13.63;8.73;;;51.80;2227.20;;;;;;5028494;28;20021;-69
2021/03/23 00:29:51;;;;;;;15.88;9.13;;;51.80;2227.20;;;;;;5027930;28;20018;-71
2021/03/23 00:32:16;;;;;;;18.13;9.73;;;51.80;2227.20;;;;;;5028506;28;20032;-71
2021/03/23 00:34:42;;;;;;;16.38;9.10;;;51.80;2227.20;;;;;;5012453;28;20029;-71
2021/03/23 00:37:08;;;;;;;15.55;8.95;;;51.80;2227.20;;;;;;5013485;28;20109;-69
2021/03/23 00:39:37;;;;;;;20.02;10.70;;;51.70;2227.20;;;;;;5022873;28;20546;-69
2021/03/23 00:42:05;;;;;;;18.80;11.13;;;51.70;2227.20;;;;;;5032254;28;20386;-71
2021/03/23 00:44:31;;;;;;;19.75;11.48;;;51.70;2227.20;;;;;;5031433;28;20021;-71
2021/03/23 00:46:57;;;;;;;22.95;12.27;;;51.70;2227.20;;;;;;5032187;28;20040;-71
2021/03/23 00:49:29;;;;;;;20.58;11.90;;;51.70;2227.20;;;;;;5031748;28;20017;-73
2021/03/23 00:51:56;;;;;;;19.88;11.80;;;51.70;2227.20;;;;;;5032198;28;20116;-69
2021/03/23 00:54:22;;;;;;;21.63;12.20;;;51.70;2227.20;;;;;;5030995;28;20501;-70
2021/03/23 00:56:47;;;;;;;25.30;12.98;;;51.60;2227.20;;;;;;5031958;28;20021;-70
2021/03/23 00:59:13;;;;;;;23.48;12.82;;;51.60;2227.20;;;;;;5031006;28;20024;-70
2021/03/23 01:01:39;;;;;;;20.35;11.52;;;51.60;2227.20;;;;;;5032133;28;20390;-71
2021/03/23 01:04:05;;;;;;;15.90;9.57;;;51.60;2227.20;;;;;;5043848;28;20401;-70
2021/03/23 01:06:31;;;;;;;18.95;9.43;;;51.60;2227.20;;;;;;5047152;28;20047;-75
2021/03/23 01:08:57;;;;;;;17.67;9.68;;;51.50;2227.20;;;;;;5042126;28;20021;-70
2021/03/23 01:11:23;;;;;;;15.52;9.05;;;51.40;2227.20;;;;;;5051489;28;20035;-71
2021/03/23 01:13:49;;;;;;;17.40;8.90;;;51.30;2227.20;;;;;;5051447;28;20549;-69
2021/03/23 01:16:15;;;;;;;14.95;8.00;;;51.30;2227.20;;;;;;5051366;28;20025;-70
2021/03/23 01:18:40;;;;;;;11.43;6.97;;;51.20;2227.20;;;;;;5051184;28;20049;-71
2021/03/23 01:21:06;;;;;;;14.70;8.20;;;26.50;2201.60;;;;;;5051286;28;20071;-70
2021/03/23 01:23:32;;;;;;;15.27;8.30;;;26.50;2201.60;;;;;;5043790;28;20029;-70
2021/03/23 01:25:58;;;;;;;11.85;7.30;;;26.40;2201.60;;;;;;5031068;28;20063;-70
2021/03/23 01:28:24;;;;;;;14.13;8.07;;;26.40;2201.60;;;;;;5030519;28;20375;-71
2021/03/23 01:30:50;;;;;;;15.80;8.32;;;26.30;2201.60;;;;;;5030768;28;20513;-71
2021/03/23 01:33:16;;;;;;;13.15;7.35;;;26.30;2201.60;;;;;;5030860;28;20565;-71
2021/03/23 01:35:42;;;;;;;18.20;9.30;;;26.20;2201.60;;;;;;5031347;28;20478;-70
2021/03/23 01:38:08;;;;;;;15.23;7.72;;;26.20;2201.60;;;;;;5025368;28;20468;-70
2021/03/23 01:40:35;;;;;;;16.88;8.25;;;26.10;2201.60;;;;;;5022783;28;20172;-70
2021/03/23 01:43:06;;;;;;;15.80;9.02;;;26.10;2201.60;;;;;;5026117;28;20101;-71
2021/03/23 01:45:38;;;;;;;14.60;8.63;;;26.00;2201.60;;;;;;5022209;28;20112;-69
2021/03/23 01:48:17;;;;;;;13.77;7.82;;;26.00;2201.60;;;;;;5030837;28;20072;-71
2021/03/23 01:50:47;;;;;;;13.57;7.30;;;26.00;2201.60;;;;;;5029376;28;20057;-71
2021/03/23 01:53:21;;;;;;;14.33;7.70;;;26.10;2201.60;;;;;;5019773;28;20021;-71
2021/03/23 01:55:47;;;;;;;15.48;7.88;;;26.10;2201.60;;;;;;5026636;28;20017;-70
2021/03/23 01:58:15;;;;;;;13.10;7.03;;;26.00;2201.60;;;;;;5031004;28;20088;-71
2021/03/23 02:00:44;;;;;;;14.50;7.57;;;26.00;2201.60;;;;;;5026094;28;20025;-69
2021/03/23 02:06:46;;;;;;;12.32;6.43;;;26.10;2201.60;;;;;;5030554;28;20140;-72
2021/03/23 02:09:18;;;;;;;13.52;7.30;;;26.10;2201.60;;;;;;5030178;28;20028;-70
2021/03/23 02:11:50;;;;;;;10.13;5.97;;;26.10;2201.60;;;;;;5026873;28;20029;-70
2021/03/23 02:14:17;;;;;;;9.73;5.75;;;26.10;2201.60;;;;;;5019735;28;20041;-70
2021/03/23 02:16:44;;;;;;;10.15;5.82;;;26.10;2201.60;;;;;;5030730;28;20031;-70
2021/03/23 02:19:11;;;;;;;10.10;5.20;;;26.10;2201.60;;;;;;5030329;28;20064;-71
2021/03/23 02:21:37;;;;;;;10.43;5.25;;;26.10;2201.60;;;;;;5030956;28;20021;-72
2021/03/23 02:24:03;;;;;;;10.85;5.43;;;26.10;2201.60;;;;;;5030714;28;20482;-69
2021/03/23 02:26:31;;;;;;;12.07;5.43;;;26.00;2201.60;;;;;;5030460;28;20037;-69
2021/03/23 02:29:00;;;;;;;8.43;4.70;;;26.10;2201.60;;;;;;5030729;28;20048;-71
2021/03/23 02:31:30;;;;;;;9.10;4.90;;;26.10;2201.60;;;;;;5030357;28;20014;-71
2021/03/23 02:33:56;;;;;;;8.82;4.85;;;26.00;2201.60;;;;;;5030960;28;20021;-71
2021/03/23 02:36:23;;;;;;;10.25;4.93;;;26.10;2201.60;;;;;;5030736;28;20072;-71
2021/03/23 02:38:49;;;;;;;8.88;4.85;;;26.00;2201.60;;;;;;5030377;28;20028;-70
2021/03/23 02:41:15;;;;;;;9.35;5.30;;;26.10;2201.60;;;;;;5034282;28;20025;-70
2021/03/23 02:43:40;;;;;;;10.10;5.50;;;26.00;2201.60;;;;;;5033402;28;20021;-71
2021/03/23 02:46:07;;;;;;;10.48;5.55;;;26.00;2201.60;;;;;;5034348;28;20120;-72
2021/03/23 02:48:32;;;;;;;10.27;5.80;;;26.00;2201.60;;;;;;5033936;28;20025;-73
2021/03/23 02:50:58;;;;;;;9.95;5.47;;;26.00;2201.60;;;;;;5034260;28;20027;-71
2021/03/23 02:53:24;;;;;;;10.38;5.55;;;26.00;2201.60;;;;;;5034269;28;20033;-71
2021/03/23 02:55:50;;;;;;;10.52;6.40;;;26.00;2201.60;;;;;;5034145;28;20071;-72
2021/03/23 02:58:16;;;;;;;9.90;6.22;;;26.10;2201.60;;;;;;5033844;28;20156;-70
2021/03/23 03:00:42;;;;;;;9.82;5.35;;;26.10;2201.60;;;;;;5034022;28;20491;-70
2021/03/23 03:03:08;;;;;;;11.60;5.20;;;26.00;2201.60;;;;;;5034029;28;20451;-70
2021/03/23 03:05:34;;;;;;;9.88;5.43;;;26.10;2201.60;;;;;;5034317;28;20060;-71
2021/03/23 03:08:00;;;;;;;9.30;5.70;;;26.10;2201.60;;;;;;5034139;28;20022;-70
2021/03/23 03:10:26;;;;;;;10.32;5.78;;;26.10;2201.60;;;;;;5033459;28;20029;-70
2021/03/23 03:12:52;;;;;;;9.48;5.40;;;26.10;2201.60;;;;;;5033975;28;20037;-70
2021/03/23 03:15:18;;;;;;;8.45;5.22;;;26.10;2201.60;;;;;;5033799;28;20032;-70
2021/03/23 03:17:44;;;;;;;7.82;5.07;;;26.10;2201.60;;;;;;5034017;28;20561;-70
2021/03/23 03:20:12;;;;;;;11.35;6.22;;;26.20;2201.60;;;;;;5033445;28;20041;-70
2021/03/23 03:22:37;;;;;;;12.43;6.85;;;26.10;2201.60;;;;;;5033903;28;20049;-71
2021/03/23 03:25:05;;;;;;;9.82;5.90;;;26.10;2201.60;;;;;;5033884;28;20411;-71
2021/03/23 03:27:31;;;;;;;8.57;5.55;;;26.10;2201.60;;;;;;5033304;28;20025;-70
2021/03/23 03:29:56;;;;;;;10.50;6.20;;;26.10;2201.60;;;;;;5033452;28;20072;-71
2021/03/23 03:32:22;;;;;;;9.55;5.47;;;26.20;2201.60;;;;;;5033301;28;20029;-70
2021/03/23 03:34:48;;;;;;;10.73;5.90;;;26.20;2201.60;;;;;;5033741;28;20096;-70
2021/03/23 03:37:14;;;;;;;10.48;6.55;;;26.10;2201.60;;;;;;5033973;28;20036;-70
2021/03/23 03:39:40;;;;;;;12.18;6.15;;;26.20;2201.60;;;;;;5033136;28;20068;-71
2021/03/23 03:42:07;;;;;;;10.00;5.70;;;26.10;2201.60;;;;;;5031845;28;20109;-70
2021/03/23 03:44:33;;;;;;;11.35;5.93;;;26.20;2201.60;;;;;;5033117;28;20479;-71
2021/03/23 03:46:58;;;;;;;8.63;4.95;;;26.20;2201.60;;;;;;5033254;28;20084;-71
2021/03/23 03:49:24;;;;;;;10.35;4.95;;;26.10;2201.60;;;;;;5032889;28;20120;-71
2021/03/23 03:51:50;;;;;;;8.43;4.63;;;26.10;2201.60;;;;;;5033076;28;20092;-70
2021/03/23 03:54:16;;;;;;;8.10;4.35;;;26.10;2201.60;;;;;;5033148;28;20025;-71
2021/03/23 03:56:41;;;;;;;9.65;5.10;;;26.10;2201.60;;;;;;5033028;28;20060;-71
2021/03/23 03:59:07;;;;;;;7.80;3.90;;;26.10;2201.60;;;;;;5033912;28;20028;-71
2021/03/23 04:01:33;;;;;;;9.35;4.40;;;26.00;2201.60;;;;;;5033246;28;20032;-71
2021/03/23 04:03:59;;;;;;;8.10;4.10;;;26.00;2201.60;;;;;;5032913;28;20025;-70
2021/03/23 04:06:25;;;;;;;8.32;4.10;;;26.00;2201.60;;;;;;5032742;28;20232;-70
2021/03/23 04:08:50;;;;;;;7.15;4.22;;;26.00;2201.60;;;;;;5032602;28;20010;-71
2021/03/23 04:11:16;;;;;;;7.38;4.28;;;26.00;2201.60;;;;;;5033047;28;20026;-70
2021/03/23 04:13:42;;;;;;;7.93;4.03;;;25.90;2201.60;;;;;;5033009;28;20025;-70
2021/03/23 04:16:08;;;;;;;7.47;4.00;;;25.90;2201.60;;;;;;5031370;28;20033;-70
2021/03/23 04:18:34;;;;;;;8.73;4.50;;;25.90;2201.60;;;;;;5032364;28;20068;-70
2021/03/23 04:21:03;;;;;;;8.90;4.20;;;25.80;2201.60;;;;;;5032575;28;20022;-71
2021/03/23 04:23:34;;;;;;;7.40;3.88;;;25.80;2201.60;;;;;;5032519;28;20029;-69
2021/03/23 04:26:00;;;;;;;;;;;25.80;2201.60;;;;;;5032940;28;20022;-70
2021/03/23 04:28:26;;;;;;;7.55;4.45;;;25.70;2201.60;;;;;;5031146;28;19955;-69
2021/03/23 04:30:52;;;;;;;8.82;4.10;;;25.70;2201.60;;;;;;5032263;28;20474;-71
2021/03/23 04:33:22;;;;;;;7.45;3.97;;;25.70;2201.60;;;;;;5032506;28;20029;-71
2021/03/23 04:36:00;;;;;;;7.82;3.95;;;25.60;2201.60;;;;;;5032517;28;20025;-71
2021/03/23 04:38:29;;;;;;;8.13;4.28;;;25.60;2201.60;;;;;;5032109;28;20033;-70
2021/03/23 04:40:58;;;;;;;8.40;4.25;;;25.60;2201.60;;;;;;5032140;28;20083;-71
2021/03/23 04:43:28;;;;;;;9.93;4.85;;;25.60;2201.60;;;;;;5032090;28;20053;-71
2021/03/23 04:45:54;;;;;;;;;;;25.60;2201.60;;;;;;5032575;28;20079;-72
2021/03/23 04:48:21;;;;;;;10.77;4.80;;;25.70;2201.60;;;;;;5032082;28;19905;-71
2021/03/23 04:50:48;;;;;;;8.45;4.40;;;25.60;2201.60;;;;;;5031939;28;20024;-72
2021/03/23 04:53:30;;;;;;;9.27;4.80;;;25.70;2201.60;;;;;;5031867;28;20382;-71
2021/03/23 04:55:56;;;;;;;9.68;4.60;;;25.60;2201.60;;;;;;5032103;28;20072;-71
2021/03/23 04:58:24;;;;;;;8.63;4.28;;;25.60;2201.60;;;;;;5031387;28;20029;-70
2021/03/23 05:00:50;;;;;;;9.32;4.70;;;25.70;2201.60;;;;;;5032109;28;20044;-71
2021/03/23 05:03:31;;;;;;;9.02;4.95;;;25.70;2201.60;;;;;;5031189;28;20026;-69
2021/03/23 05:06:05;;;;;;;10.18;4.55;;;25.70;2201.60;;;;;;5019840;28;20029;-72
2021/03/23 05:08:32;;;;;;;10.25;4.93;;;25.70;2201.60;;;;;;5026120;28;20052;-72
2021/03/23 05:10:58;;;;;;;11.38;5.70;;;25.70;2201.60;;;;;;5031863;28;20024;-71
2021/03/23 05:13:24;;;;;;;10.95;5.50;;;25.80;2201.60;;;;;;5031750;28;20029;-70
2021/03/23 05:15:49;;;;;;;12.68;5.75;;;25.80;2201.60;;;;;;5031477;28;20096;-70
2021/03/23 05:18:15;;;;;;;9.32;5.00;;;26.00;2201.60;;;;;;5031443;28;20057;-71
2021/03/23 05:20:41;;;;;;;11.25;5.22;;;26.00;2201.60;;;;;;5031366;28;20478;-71
2021/03/23 05:23:08;;;;;;;10.75;5.40;;;26.00;2201.60;;;;;;5031428;28;20021;-71
2021/03/23 05:25:34;;;;;;;11.35;5.38;;;26.00;2201.60;;;;;;5031512;28;20061;-73
2021/03/23 05:28:00;;;;;;;10.60;5.25;;;25.90;2201.60;;;;;;5031466;28;20041;-71
2021/03/23 05:30:26;;;;;;;9.18;4.82;;;26.00;2201.60;;;;;;5031125;28;20032;-71
2021/03/23 05:32:52;;;;;;;13.70;7.40;;;26.00;2201.60;;;;;;5031103;28;20022;-71
2021/03/23 05:35:18;;;;;;;22.42;11.43;;;26.00;2201.60;;;;;;5031321;28;20124;-70
2021/03/23 05:37:44;;;;;;;20.35;10.10;;;26.00;2201.60;;;;;;5031156;28;20029;-70
2021/03/23 05:40:28;;;;;;;15.65;10.18;;;26.10;2201.60;;;;;;5031201;28;20053;-71
2021/03/23 05:43:26;;;;;;;13.00;7.00;;;26.10;2201.60;;;;;;5031404;28;20067;-71
2021/03/23 05:46:00;;;;;;;12.90;6.85;;;26.00;2201.60;;;;;;5019169;28;20041;-71
2021/03/23 05:48:29;;;;;;;9.95;6.05;;;26.00;2201.60;;;;;;5029675;28;20398;-70
2021/03/23 05:51:05;;;;;;;12.27;5.80;;;26.00;2201.60;;;;;;5031294;28;20056;-72
2021/03/23 05:53:40;;;;;;;11.07;6.22;;;26.10;2201.60;;;;;;5031102;28;20151;-71
2021/03/23 05:56:07;;;;;;;10.35;5.40;;;26.20;2201.60;;;;;;5029638;28;20026;-71
2021/03/23 05:58:36;;;;;;;12.45;6.07;;;26.30;2201.60;;;;;;5030959;28;20053;-70
2021/03/23 06:01:10;;;;;;;14.38;6.53;;;26.40;2201.60;;;;;;5031059;28;20490;-71
2021/03/23 06:03:45;;;;;;;12.45;7.10;;;26.50;2201.60;;;;;;5030895;28;20040;-71
2021/03/23 06:06:41;;;;;;;12.43;6.63;;;26.50;2201.60;;;;;;5030974;28;20021;-72
2021/03/23 06:09:15;;;;;;;13.40;6.47;;;26.50;2201.60;;;;;;5030435;28;20858;-71
2021/03/23 06:11:44;;;;;;;14.18;7.53;;;26.50;2201.60;;;;;;5031036;28;20501;-72
2021/03/23 06:14:36;;;;;;;11.10;6.50;;;26.50;2201.60;;;;;;5033049;28;20048;-71
2021/03/23 06:17:28;;;;;;;11.60;6.15;;;26.50;2201.60;;;;;;5034846;28;20025;-70
2021/03/23 06:20:14;;;;;;;11.52;5.80;;;51.20;2227.20;;;;;;5034288;28;20108;-72
2021/03/23 06:22:58;;;;;;;12.07;6.00;;;51.20;2227.20;;;;;;5034925;28;20100;-71
2021/03/23 06:25:50;;;;;;;9.80;5.10;;;51.30;2227.20;;;;;;5034896;28;20029;-71
2021/03/23 06:28:55;;;;;;;11.00;6.18;;;51.40;2227.20;;;;;;5008696;28;20037;-71
2021/03/23 06:31:58;;;;;;;12.65;6.55;;;51.60;2227.20;;;;;;5021737;28;20022;-71
2021/03/23 06:34:31;;;;;;;16.20;7.50;;;51.60;2227.20;;;;;;5034544;28;20419;-71
2021/03/23 06:36:58;;;;;;;10.80;6.05;;;51.60;2227.20;;;;;;5034481;28;20079;-71
2021/03/23 06:39:31;;;;;;;12.77;6.13;;;51.80;2227.20;;;;;;5034120;28;20048;-70
2021/03/23 06:42:00;;;;;;;11.40;6.20;;;51.80;2227.20;;;;;;5034619;28;20509;-70
2021/03/23 06:44:40;;;;;;;11.75;6.05;;;51.80;2201.60;;;;;;5034153;28;20072;-71
2021/03/23 06:47:35;;;;;;;8.30;5.20;;;51.80;2227.20;;;;;;5034757;28;20348;-71
2021/03/23 06:50:15;;;;;;;9.77;5.07;;;51.90;2227.20;;;;;;5020814;28;20018;-75
2021/03/23 06:52:41;;;;;;;7.88;4.25;;;52.00;2201.60;;;;;;5034270;28;20037;-71
2021/03/23 06:55:26;;;;;;;9.18;4.93;;;52.00;2201.60;;;;;;5034129;28;20029;-75
2021/03/23 06:57:51;;;;;;;8.82;4.47;;;52.00;2227.20;;;;;;5034157;28;20060;-71
2021/03/23 07:00:33;;;;;;;7.28;3.63;;;52.00;2227.20;;;;;;5032435;28;20053;-71
2021/03/23 07:03:33;;;;;;;8.18;4.30;;;51.90;2201.60;;;;;;5015244;28;20052;-71
2021/03/23 07:05:58;;;;;;;7.93;4.30;;;51.80;2201.60;;;;;;5028859;28;20088;-70
2021/03/23 07:08:27;;;;;;;9.27;4.20;;;51.90;2227.20;;;;;;5032421;28;20421;-69
2021/03/23 07:10:52;;;;;;;13.32;7.90;;;52.00;2201.60;;;;;;5027224;28;20020;-71
2021/03/23 07:13:30;;;;;;;11.80;8.13;;;76.80;2201.60;;;;;;5034162;28;20030;-72
2021/03/23 07:15:59;;;;;;;9.07;5.35;;;76.90;2201.60;;;;;;5033640;28;20108;-71
2021/03/23 07:18:28;;;;;;;7.90;4.38;;;77.00;2150.40;;;;;;5033469;28;20552;-72
2021/03/23 07:20:57;;;;;;;8.27;5.10;;;77.10;2150.40;;;;;;5033849;28;20143;-71
2021/03/23 07:23:39;;;;;;;9.45;4.90;;;77.20;2150.40;;;;;;5033729;28;20018;-70
2021/03/23 07:26:28;;;;;;;9.00;5.32;;;77.40;2073.60;;;;;;5032910;28;20519;-71
2021/03/23 07:29:21;;;;;;;7.65;3.83;;;77.70;2099.20;;;;;;5033127;28;20026;-71
2021/03/23 07:31:59;;;;;;;9.23;5.03;;;77.70;2022.40;;;;;;5033499;28;20025;-70
2021/03/23 07:34:34;;;;;;;7.82;4.38;;;102.60;2022.40;;;;;;5033320;28;20101;-70
2021/03/23 07:37:15;;;;;;;9.75;4.80;;;102.80;1996.80;;;;;;5033721;28;20028;-72
2021/03/23 07:40:00;;;;;;;8.98;5.20;;;103.00;1971.20;;;;;;5032819;28;20030;-72
2021/03/23 07:42:40;;;;;;;7.28;4.60;;;103.30;1920.00;;;;;;5033381;28;20029;-70
2021/03/23 07:45:27;;;;;;;28.25;14.50;;;128.00;1945.60;;;;;;5032158;28;20108;-72
2021/03/23 07:48:10;;;;;;;10.48;5.57;;;128.10;1920.00;;;;;;5033211;28;20026;-70
2021/03/23 07:50:39;;;;;;;6.90;3.90;;;128.10;1920.00;;;;;;5033185;28;20101;-71
2021/03/23 07:53:39;;;;;;;7.93;4.15;;;128.40;1920.00;;;;;;5033080;28;20022;-70
2021/03/23 07:56:19;;;;;;;8.70;4.38;;;128.60;1868.80;;;;;;5030341;28;20383;-71
2021/03/23 07:59:06;;;;;;;8.85;5.22;;;128.80;1894.40;;;;;;5031613;28;20620;-71
2021/03/23 08:02:13;;;;;;;12.98;6.53;;;128.70;1868.80;;;;;;5033199;28;20490;-72
2021/03/23 08:05:15;;;;;;;9.32;5.28;;;128.80;1894.40;;;;;;5024229;28;20389;-71
2021/03/23 08:08:03;;;;;;;13.38;9.25;;;128.90;1894.40;;;;;;5029986;28;20116;-71
2021/03/23 08:10:47;;;;;;;16.15;10.98;;;153.60;1843.20;;;;;;5032377;28;20045;-70
2021/03/23 08:13:40;;;;;;;14.75;9.45;;;153.80;1843.20;;;;;;5032940;28;20100;-71
2021/03/23 08:16:29;;;;;;;18.73;11.43;;;153.90;1817.60;;;;;;5019923;28;20163;-69
2021/03/23 08:19:04;;;;;;;8.88;5.22;;;154.00;1792.00;;;;;;5032111;28;20053;-74
2021/03/23 08:21:52;;;;;;;9.52;5.13;;;154.10;1817.60;;;;;;5033008;28;20021;-71
2021/03/23 08:24:29;;;;;;;14.13;8.80;;;154.10;1792.00;;;;;;5032361;28;20040;-70
2021/03/23 08:27:27;;;;;;;19.40;12.40;;;154.00;1817.60;;;;;;5031355;28;20097;-72
2021/03/23 08:29:59;;;;;;;14.27;8.55;;;153.80;1792.00;;;;;;5020584;28;20106;-71
2021/03/23 08:32:39;;;;;;;13.40;8.63;;;153.70;1817.60;;;;;;5029310;28;20049;-68
2021/03/23 08:35:20;;;;;;;14.80;8.95;;;128.50;1894.40;;;;;;5023212;28;20021;-70
2021/03/23 08:38:07;;;;;;;10.88;6.50;;;128.10;1894.40;;;;;;5030855;28;20156;-71
2021/03/23 08:40:59;;;;;;;13.95;7.90;;;128.10;1920.00;;;;;;5032024;28;20053;-71
2021/03/23 08:43:37;;;;;;;10.10;6.53;;;103.30;1920.00;;;;;;5019180;28;20037;-70
2021/03/23 08:46:21;;;;;;;14.68;9.80;;;103.30;1945.60;;;;;;5027783;28;20529;-75
2021/03/23 08:48:54;;;;;;;13.80;9.65;;;103.30;1945.60;;;;;;5040687;28;20021;-72
2021/03/23 08:51:24;;;;;;;8.63;5.43;;;128.00;1971.20;;;;;;5031897;28;20025;-71
2021/03/23 08:53:57;;;;;;;7.65;4.85;;;128.00;1945.60;;;;;;5031705;28;20022;-69
2021/03/23 08:56:41;;;;;;;13.20;8.82;;;128.00;1945.60;;;;;;5031994;28;20026;-71
2021/03/23 08:59:32;;;;;;;13.63;8.13;;;103.30;1920.00;;;;;;5027466;28;20050;-72
2021/03/23 09:02:00;;;;;;;10.45;7.05;;;128.00;1920.00;;;;;;5028896;28;20095;-71
2021/03/23 09:04:33;;;;;;;8.50;5.28;;;128.00;1945.60;;;;;;5031957;28;20034;-70
2021/03/23 09:07:12;;;;;;;12.07;8.48;;;128.10;1945.60;;;;;;5031561;28;20028;-70
2021/03/23 09:09:43;;;;;;;13.27;7.57;;;128.00;1920.00;;;;;;5031386;28;20013;-70
2021/03/23 09:12:12;;;;;;;10.23;5.50;;;103.20;1920.00;;;;;;5031557;28;20029;-73
2021/03/23 09:15:18;;;;;;;15.35;9.05;;;128.10;1945.60;;;;;;5031681;28;20021;-70
2021/03/23 09:18:14;;;;;;;13.70;8.27;;;128.50;1894.40;;;;;;5028778;28;20231;-69
2021/03/23 09:20:40;;;;;;;9.07;5.32;;;128.90;1920.00;;;;;;5031106;28;20051;-75
2021/03/23 09:23:18;;;;;;;11.73;6.97;;;154.50;1817.60;;;;;;5031351;28;20021;-75
2021/03/23 09:25:53;;;;;;;11.40;7.38;;;205.30;1689.60;;;;;;5031404;28;20048;-70
2021/03/23 09:28:39;;;;;;;9.35;6.03;;;230.40;1587.20;;;;;;5031464;28;20032;-69
2021/03/23 09:31:09;;;;;;;10.05;5.72;;;205.60;1561.60;;;;;;5031279;28;20029;-69
2021/03/23 09:33:47;;;;;;;11.13;6.25;;;205.70;1587.20;;;;;;5031471;28;20037;-70
2021/03/23 09:36:15;;;;;;;12.73;6.72;;;205.20;1587.20;;;;;;5031133;28;20029;-73
2021/03/23 09:38:51;;;;;;;8.93;5.60;;;205.50;1612.80;;;;;;5031111;28;20033;-69
2021/03/23 09:41:32;;;;;;;7.57;5.35;;;205.50;1587.20;;;;;;5030967;28;20036;-69
2021/03/23 09:44:04;;;;;;;10.43;6.15;;;230.40;1587.20;;;;;;5031435;28;20025;-69
2021/03/23 09:46:32;;;;;;;8.23;5.50;;;230.40;1587.20;;;;;;5030899;28;20029;-70
2021/03/23 09:49:18;;;;;;;8.63;5.53;;;205.60;1587.20;;;;;;5030600;28;20053;-69
2021/03/23 09:51:50;;;;;;;9.90;6.40;;;230.40;1587.20;;;;;;5028038;28;20029;-68
2021/03/23 09:54:26;;;;;;;12.90;7.28;;;205.40;1587.20;;;;;;5031255;28;20056;-70
2021/03/23 09:56:55;;;;;;;10.23;6.10;;;205.60;1612.80;;;;;;5028417;28;20378;-70
2021/03/23 09:59:26;;;;;;;14.27;8.32;;;231.10;1536.00;;;;;;5030911;28;20429;-70
2021/03/23 10:02:22;;;;;;;9.55;6.03;;;231.00;1510.40;;;;;;5031108;28;20540;-71
2021/03/23 10:04:48;;;;;;;10.38;6.40;;;230.90;1536.00;;;;;;5028561;28;20041;-70
2021/03/23 10:07:41;;;;;;;10.55;5.40;;;230.60;1536.00;;;;;;5030723;28;20076;-69
2021/03/23 10:10:20;;;;;;;11.30;6.75;;;230.50;1561.60;;;;;;5030777;28;20479;-70
2021/03/23 10:12:46;;;;;;;10.27;7.10;;;230.50;1561.60;;;;;;5029678;28;20017;-69
2021/03/23 10:15:39;;;;;;;11.50;6.72;;;230.40;1536.00;;;;;;5031065;28;20108;-70
2021/03/23 10:18:14;;;;;;;8.50;5.30;;;205.50;1612.80;;;;;;5020695;28;20379;-69
2021/03/23 10:20:40;;;;;;;9.23;5.85;;;205.20;1638.40;;;;;;5030489;28;20226;-69
2021/03/23 10:23:06;;;;;;;9.63;6.03;;;205.20;1638.40;;;;;;5031100;28;20128;-70
2021/03/23 10:25:32;;;;;;;9.85;5.88;;;205.30;1664.00;;;;;;5030593;28;20030;-69
2021/03/23 10:28:01;;;;;;;9.85;5.82;;;205.10;1664.00;;;;;;5025314;28;20044;-68
2021/03/23 10:30:36;;;;;;;10.05;6.22;;;204.90;1664.00;;;;;;5030313;28;20018;-70
2021/03/23 10:33:21;;;;;;;10.57;5.90;;;180.00;1664.00;;;;;;5023135;28;20026;-70
2021/03/23 10:35:47;;;;;;;9.60;6.18;;;180.00;1715.20;;;;;;5030795;28;20057;-70
2021/03/23 10:38:40;;;;;;;10.68;5.95;;;179.50;1715.20;;;;;;5030681;28;20111;-70
2021/03/23 10:41:18;;;;;;;9.20;5.30;;;179.50;1740.80;;;;;;5030169;28;20045;-70
2021/03/23 10:43:49;;;;;;;9.57;6.25;;;179.60;1740.80;;;;;;5020782;28;20395;-69
2021/03/23 10:46:32;;;;;;;9.43;5.63;;;179.80;1740.80;;;;;;5016236;28;20490;-70
2021/03/23 10:49:31;;;;;;;9.02;5.25;;;180.00;1715.20;;;;;;5015484;28;20398;-73
2021/03/23 10:52:22;;;;;;;9.90;5.95;;;179.90;1715.20;;;;;;5012525;28;20057;-70
2021/03/23 10:54:47;;;;;;;9.27;5.28;;;179.90;1715.20;;;;;;5011749;28;20030;-72
2021/03/23 10:57:30;;;;;;;11.68;6.20;;;179.80;1715.20;;;;;;5020738;28;20025;-70
2021/03/23 11:00:13;;;;;;;12.45;8.02;;;180.10;1715.20;;;;;;5028405;28;20025;-68
2021/03/23 11:02:39;;;;;;;9.68;5.72;;;230.40;1638.40;;;;;;5016396;28;20030;-70
2021/03/23 11:05:12;;;;;;;19.95;16.25;;;230.80;1587.20;;;;;;5018967;28;20498;-68
2021/03/23 11:07:50;;;;;;;9.45;5.95;;;230.90;1561.60;;;;;;5033598;28;20029;-69
2021/03/23 11:10:21;;;;;;;9.55;5.70;;;230.70;1612.80;;;;;;5021785;28;20105;-71
2021/03/23 11:12:47;;;;;;;;;;;230.70;1587.20;;;;;;5022512;28;20370;-69
2021/03/23 11:15:46;;;;;;;;;;;;;;;;;;;;;
2021/03/23 11:18:30;;;;;;;30.75;17.25;;;230.60;1587.20;;;;;;5024185;28;20029;-69
2021/03/23 11:20:57;;;;;;;16.45;9.68;;;230.70;1561.60;;;;;;5022019;28;20021;-70
2021/03/23 11:24:09;;;;;;;17.95;10.45;;;230.40;1587.20;;;;;;5033306;28;20072;-70
2021/03/23 11:26:30;;;;;;;14.55;8.20;;;205.70;1638.40;;;;;;5032363;28;20533;-68
2021/03/23 11:28:58;;;;;;;15.98;11.10;;;205.60;1638.40;;;;;;5033266;28;20191;-69
2021/03/23 11:31:26;;;;;;;16.45;11.95;;;205.50;1638.40;;;;;;5033596;28;20021;-70
2021/03/23 11:33:53;;;;;;;23.65;16.13;;;205.40;1638.40;;;;;;5032786;28;20034;-68
2021/03/23 11:36:20;;;;;;;24.40;16.98;;;205.50;1664.00;;;;;;5032363;28;20025;-70
2021/03/23 11:38:46;;;;;;;34.47;22.77;;;205.50;1664.00;;;;;;5033176;28;20033;-69
2021/03/23 11:41:17;;;;;;;17.25;11.10;;;205.20;1664.00;;;;;;5033273;28;20470;-69
2021/03/23 11:43:45;;;;;;;;;;;205.10;1689.60;;;;;;5033394;28;20017;-70
2021/03/23 11:46:25;;;;;;;25.48;19.35;;;180.00;1740.80;;;;;;5032852;28;19917;-70
2021/03/23 11:48:56;;;;;;;22.67;15.70;;;179.70;1766.40;;;;;;5032051;28;20561;-70
2021/03/23 11:51:24;;;;;;;20.17;13.30;;;179.60;1792.00;;;;;;5038670;28;20087;-71
2021/03/23 11:53:51;;;;;;;20.95;15.57;;;179.70;1792.00;;;;;;5032767;28;20017;-67
2021/03/23 11:56:17;;;;;;;15.32;10.68;;;179.90;1766.40;;;;;;5032450;28;20136;-69
2021/03/23 11:58:43;;;;;;;15.65;10.27;;;180.00;1766.40;;;;;;5032891;28;20048;-71
2021/03/23 12:01:10;;;;;;;16.50;11.18;;;179.90;1792.00;;;;;;5032710;28;20072;-70
2021/03/23 12:03:36;;;;;;;13.13;9.43;;;180.00;1817.60;;;;;;5031975;28;20125;-69
2021/03/23 12:06:03;;;;;;;12.75;8.85;;;180.00;1766.40;;;;;;5032970;28;20080;-69
2021/03/23 12:08:51;;;;;;;14.25;10.38;;;204.80;1740.80;;;;;;5032040;28;20034;-69
2021/03/23 12:11:23;;;;;;;21.40;14.27;;;205.10;1740.80;;;;;;5032400;28;20026;-67
2021/03/23 12:14:00;;;;;;;21.73;16.75;;;205.00;1766.40;;;;;;5030423;28;20025;-65
2021/03/23 12:16:39;;;;;;;23.25;17.45;;;205.10;1715.20;;;;;;5031942;28;20104;-73
2021/03/23 12:19:12;;;;;;;15.35;10.95;;;205.10;1740.80;;;;;;5031958;28;20054;-67
2021/03/23 12:21:38;;;;;;;16.27;11.27;;;205.10;1740.80;;;;;;5032465;28;20053;-68
2021/03/23 12:24:05;;;;;;;11.80;7.30;;;204.90;1766.40;;;;;;5029265;28;20065;-68
2021/03/23 12:26:31;;;;;;;12.32;8.57;;;204.90;1766.40;;;;;;5032954;28;20041;-69
2021/03/23 12:28:57;;;;;;;12.23;7.38;;;205.20;1792.00;;;;;;5032719;28;20412;-66
2021/03/23 12:31:23;;;;;;;14.20;9.18;;;205.40;1715.20;;;;;;5032015;28;20021;-66
2021/03/23 12:33:49;;;;;;;13.77;9.50;;;205.50;1715.20;;;;;;5031757;28;20079;-67
2021/03/23 12:36:16;;;;;;;10.40;7.03;;;205.50;1689.60;;;;;;5031155;28;20211;-67
2021/03/23 12:38:46;;;;;;;12.18;8.55;;;205.50;1715.20;;;;;;5030694;28;20478;-68
2021/03/23 12:41:15;;;;;;;11.38;7.50;;;205.50;1689.60;;;;;;5031161;28;20371;-67
2021/03/23 12:43:41;;;;;;;10.45;7.82;;;205.50;1689.60;;;;;;5031261;28;20021;-68
2021/03/23 12:46:08;;;;;;;9.93;6.32;;;205.20;1689.60;;;;;;5031358;28;20026;-67
2021/03/23 12:48:34;;;;;;;8.77;6.97;;;205.10;1715.20;;;;;;5030864;28;20029;-67